Mechanicsville, Virginia
Current Conditions -  °F | °C
As of 2:54 AM on Sunday 26 Oct 2014 (Local Time) from KOFP Reporting Station
Clear Clear  
Wind Chill: 57°   Ceiling: Unl
Heat Index: 57°   Visibility: 10mi
Dew Point: 47°   Wind: 7mph
Humidity: 69%   Direction: 240°WSW
Pressure: 29.75"   Gusts: NA
Location:  37.61°N, 77.38°W
Report Text: KOFP 260654Z AUTO 24006KT 10SM CLR 14/08 A2975 RMK AO2 SLP073 T01390083
Loading
Personal Weather Stations






























Interactive Weather Map
Tropical Storm Tracking
New forecast layout! Learn more

10-Day Weather Forecast

Advertisements
Track Severe Weather on mobile